Time;durP1;ratioP1;P1;durP2;ratioP2;P2;SDS_P1;SDS_P2;PMS_P1;PMS_P2;Temp;Humidity;BMP_temperature;BMP_pressure;BME280_temperature;BME280_humidity;BME280_pressure;Samples;Min_cycle;Max_cycle;Signal;HPM_P1;HPM_P2
2023/05/05 00:01:48;;;;;;;3.55;1.67;;;;;;;;;;4998581;28;20058;-67
2023/05/05 00:04:16;;;;;;;4.68;1.80;;;;;;;;;;5000243;28;20110;-66
2023/05/05 00:06:43;;;;;;;4.03;1.75;;;;;;;;;;4998497;28;20503;-67
2023/05/05 00:09:17;;;;;;;3.40;1.73;;;;;;;;;;4998602;28;20053;-66
2023/05/05 00:11:44;;;;;;;5.65;1.88;;;;;;;;;;4999896;28;20585;-66
2023/05/05 00:14:31;;;;;;;7.28;1.63;;;;;;;;;;4992991;28;20064;-66
2023/05/05 00:17:05;;;;;;;2.95;1.70;;;;;;;;;;4965062;28;20058;-52
2023/05/05 00:19:40;;;;;;;5.25;1.83;;;;;;;;;;4964547;28;20150;-57
2023/05/05 00:22:07;;;;;;;2.67;1.55;;;;;;;;;;4968546;28;20587;-50
2023/05/05 00:24:34;;;;;;;2.72;1.48;;;;;;;;;;4964561;28;20502;-54
2023/05/05 00:27:08;;;;;;;6.93;1.73;;;;;;;;;;4965931;28;20061;-65
2023/05/05 00:29:35;;;;;;;3.22;1.63;;;;;;;;;;4965516;28;20050;-71
2023/05/05 00:32:09;;;;;;;2.50;1.60;;;;;;;;;;4967256;28;20514;-71
2023/05/05 00:34:43;;;;;;;7.22;2.13;;;;;;;;;;4966705;28;20082;-71
2023/05/05 00:37:17;;;;;;;3.28;1.90;;;;;;;;;;4967208;28;20524;-70
2023/05/05 00:39:44;;;;;;;4.50;1.80;;;;;;;;;;4965468;28;20325;-70
2023/05/05 00:42:11;;;;;;;5.90;1.90;;;;;;;;;;4965602;28;20097;-70
2023/05/05 00:44:45;;;;;;;2.30;1.73;;;;;;;;;;4965387;28;20500;-61
2023/05/05 00:47:12;;;;;;;;;;;;;;;;;;4966645;28;20129;-60
2023/05/05 00:49:46;;;;;;;3.30;1.67;;;;;;;;;;4958108;28;20613;-62
2023/05/05 00:52:13;;;;;;;4.00;1.67;;;;;;;;;;4961073;28;20054;-60
2023/05/05 00:54:40;;;;;;;2.58;1.70;;;;;;;;;;4955099;28;20058;-70
2023/05/05 00:57:14;;;;;;;2.75;1.75;;;;;;;;;;4955846;28;20085;-55
2023/05/05 00:59:45;;;;;;;3.63;1.80;;;;;;;;;;4959006;28;20055;-65
2023/05/05 01:02:12;;;;;;;3.80;1.80;;;;;;;;;;4954916;28;20059;-65
2023/05/05 01:04:46;;;;;;;2.33;1.50;;;;;;;;;;4954681;28;20534;-65
2023/05/05 01:07:28;;;;;;;5.65;2.10;;;;;;;;;;4954935;28;20066;-65
2023/05/05 01:10:10;;;;;;;3.28;2.10;;;;;;;;;;4956620;28;20058;-65
2023/05/05 01:13:06;;;;;;;10.98;2.10;;;;;;;;;;4958748;28;20145;-56
2023/05/05 01:15:37;;;;;;;4.03;2.03;;;;;;;;;;4966169;28;20137;-50
2023/05/05 01:18:23;;;;;;;5.00;1.95;;;;;;;;;;4961201;28;20058;-59
2023/05/05 01:20:58;;;;;;;3.50;1.63;;;;;;;;;;4980519;28;20061;-57
2023/05/05 01:23:38;;;;;;;3.95;1.88;;;;;;;;;;4979647;28;20050;-58
2023/05/05 01:26:17;;;;;;;5.50;1.90;;;;;;;;;;4978912;28;20066;-61
2023/05/05 01:28:54;;;;;;;1.98;1.55;;;;;;;;;;4980123;28;20054;-60
2023/05/05 01:31:28;;;;;;;3.45;1.95;;;;;;;;;;4979550;28;20046;-54
2023/05/05 01:34:06;;;;;;;3.80;1.90;;;;;;;;;;4963983;28;20093;-50
2023/05/05 01:36:39;;;;;;;7.47;1.95;;;;;;;;;;4978642;28;20054;-50
2023/05/05 01:39:15;;;;;;;5.65;1.92;;;;;;;;;;4962407;28;20181;-53
2023/05/05 01:41:46;;;;;;;4.00;1.80;;;;;;;;;;4980025;28;20066;-70
2023/05/05 01:44:20;;;;;;;4.85;1.60;;;;;;;;;;4977916;28;20069;-63
2023/05/05 01:46:49;;;;;;;3.30;1.70;;;;;;;;;;4980136;28;20056;-63
2023/05/05 01:49:17;;;;;;;3.47;1.77;;;;;;;;;;4983183;28;20082;-63
2023/05/05 01:51:51;;;;;;;4.63;1.70;;;;;;;;;;4981433;28;20114;-62
2023/05/05 01:54:20;;;;;;;3.25;1.98;;;;;;;;;;4979360;28;20053;-62
2023/05/05 01:56:56;;;;;;;5.43;2.13;;;;;;;;;;4981018;28;20058;-63
2023/05/05 01:59:23;;;;;;;4.40;2.10;;;;;;;;;;4980933;28;20058;-62
2023/05/05 02:01:51;;;;;;;4.20;2.20;;;;;;;;;;4975617;28;20054;-55
2023/05/05 02:04:26;;;;;;;2.45;1.85;;;;;;;;;;4981460;28;20651;-53
2023/05/05 02:06:53;;;;;;;4.18;1.98;;;;;;;;;;4974087;28;20059;-58
2023/05/05 02:09:28;;;;;;;3.40;1.88;;;;;;;;;;4979924;28;20137;-56
2023/05/05 02:11:57;;;;;;;3.03;2.10;;;;;;;;;;4961871;28;20561;-65
2023/05/05 02:14:26;;;;;;;3.17;2.03;;;;;;;;;;4980086;28;20528;-54
2023/05/05 02:17:07;;;;;;;4.32;1.88;;;;;;;;;;4960548;28;20499;-55
2023/05/05 02:19:38;;;;;;;6.18;2.05;;;;;;;;;;4965569;28;20051;-53
2023/05/05 02:22:15;;;;;;;4.75;2.20;;;;;;;;;;4964878;28;20054;-52
2023/05/05 02:24:42;;;;;;;3.25;2.42;;;;;;;;;;4966274;28;20047;-54
2023/05/05 02:27:10;;;;;;;9.27;2.10;;;;;;;;;;4966552;28;20055;-56
2023/05/05 02:29:52;;;;;;;3.80;2.20;;;;;;;;;;4963368;28;20042;-60
2023/05/05 02:32:26;;;;;;;3.92;1.92;;;;;;;;;;4963489;28;20062;-60
2023/05/05 02:35:03;;;;;;;5.57;2.55;;;;;;;;;;4964693;28;20051;-61
2023/05/05 02:37:31;;;;;;;4.15;2.22;;;;;;;;;;4965680;28;20133;-59
2023/05/05 02:39:59;;;;;;;3.63;2.40;;;;;;;;;;4962981;28;20061;-66
2023/05/05 02:42:35;;;;;;;3.40;2.28;;;;;;;;;;4963338;28;20106;-63
2023/05/05 02:45:05;;;;;;;6.43;2.40;;;;;;;;;;4965261;28;20069;-63
2023/05/05 02:47:39;;;;;;;4.47;2.70;;;;;;;;;;4963793;28;20082;-63
2023/05/05 02:50:07;;;;;;;4.32;2.03;;;;;;;;;;4961307;28;20502;-62
2023/05/05 02:52:35;;;;;;;4.78;2.65;;;;;;;;;;4962358;28;20519;-62
2023/05/05 02:55:09;;;;;;;7.30;2.40;;;;;;;;;;4963586;28;20108;-63
2023/05/05 02:57:36;;;;;;;;;;;;;;;;;;4967473;28;21293;-71
2023/05/05 03:00:10;;;;;;;5.50;2.25;;;;;;;;;;4944310;28;19944;-72
2023/05/05 03:02:54;;;;;;;7.40;2.60;;;;;;;;;;4959632;28;20043;-72
2023/05/05 03:05:27;;;;;;;6.85;2.40;;;;;;;;;;4962522;28;20138;-71
2023/05/05 03:08:09;;;;;;;4.53;2.20;;;;;;;;;;4963859;28;20506;-62
2023/05/05 03:10:43;;;;;;;4.47;2.20;;;;;;;;;;4964621;28;20102;-61
2023/05/05 03:13:18;;;;;;;6.65;2.45;;;;;;;;;;4963668;28;20749;-60
2023/05/05 03:15:47;;;;;;;6.65;1.90;;;;;;;;;;4971930;28;20058;-62
2023/05/05 03:18:29;;;;;;;3.40;2.20;;;;;;;;;;4977687;28;20503;-61
2023/05/05 03:20:56;;;;;;;4.78;2.42;;;;;;;;;;4977770;28;20050;-59
2023/05/05 03:23:31;;;;;;;3.50;2.30;;;;;;;;;;4978187;28;20051;-62
2023/05/05 03:25:58;;;;;;;5.93;2.63;;;;;;;;;;4982275;28;20080;-63
2023/05/05 03:28:26;;;;;;;4.25;2.38;;;;;;;;;;4978311;28;20141;-62
2023/05/05 03:30:59;;;;;;;6.82;2.75;;;;;;;;;;4979724;28;20076;-63
2023/05/05 03:33:26;;;;;;;3.42;2.30;;;;;;;;;;4977303;28;20046;-63
2023/05/05 03:36:00;;;;;;;7.75;2.80;;;;;;;;;;4977528;28;20061;-71
2023/05/05 03:38:27;;;;;;;3.47;2.28;;;;;;;;;;4976323;28;20503;-51
2023/05/05 03:40:55;;;;;;;4.65;2.45;;;;;;;;;;4979275;28;20062;-52
2023/05/05 03:43:29;;;;;;;3.53;2.22;;;;;;;;;;4974936;28;20058;-56
2023/05/05 03:45:56;;;;;;;5.45;2.60;;;;;;;;;;4975725;28;20053;-56
2023/05/05 03:48:30;;;;;;;4.43;2.63;;;;;;;;;;4974336;28;20074;-51
2023/05/05 03:50:58;;;;;;;7.03;2.78;;;;;;;;;;4976780;28;20138;-50
2023/05/05 03:53:25;;;;;;;4.65;2.70;;;;;;;;;;4976980;28;20077;-62
2023/05/05 03:55:59;;;;;;;4.90;2.33;;;;;;;;;;4980187;28;20137;-71
2023/05/05 03:58:26;;;;;;;4.18;2.50;;;;;;;;;;4978084;28;20096;-51
2023/05/05 04:01:00;;;;;;;7.47;2.70;;;;;;;;;;4973242;28;20062;-56
2023/05/05 04:03:27;;;;;;;6.20;2.53;;;;;;;;;;4976876;28;20052;-58
2023/05/05 04:05:54;;;;;;;5.10;2.10;;;;;;;;;;4973205;28;20066;-58
2023/05/05 04:08:28;;;;;;;2.55;2.35;;;;;;;;;;4977426;28;21021;-58
2023/05/05 04:10:56;;;;;;;2.30;1.55;;;;;;;;;;4974701;28;20061;-58
2023/05/05 04:13:23;;;;;;;3.97;2.40;;;;;;;;;;4973696;28;20506;-56
2023/05/05 04:16:11;;;;;;;5.43;2.35;;;;;;;;;;4971745;28;20091;-54
2023/05/05 04:18:46;;;;;;;5.30;2.63;;;;;;;;;;4977380;28;20112;-51
2023/05/05 04:21:20;;;;;;;2.67;2.20;;;;;;;;;;4976944;28;20502;-48
2023/05/05 04:23:47;;;;;;;3.67;2.17;;;;;;;;;;4974842;28;20418;-51
2023/05/05 04:26:14;;;;;;;2.83;2.15;;;;;;;;;;4972438;28;20137;-52
2023/05/05 04:28:48;;;;;;;5.22;2.42;;;;;;;;;;4974431;28;20491;-47
2023/05/05 04:31:15;;;;;;;4.88;2.10;;;;;;;;;;4970396;28;20101;-63
2023/05/05 04:33:49;;;;;;;3.90;2.15;;;;;;;;;;4974454;28;20177;-60
2023/05/05 04:36:17;;;;;;;4.25;2.60;;;;;;;;;;4975047;28;20054;-61
2023/05/05 04:38:45;;;;;;;3.55;2.17;;;;;;;;;;4973898;28;20128;-62
2023/05/05 04:41:20;;;;;;;5.40;2.50;;;;;;;;;;4969688;28;20050;-60
2023/05/05 04:43:47;;;;;;;4.55;2.17;;;;;;;;;;4970607;28;20061;-61
2023/05/05 04:46:21;;;;;;;6.13;2.20;;;;;;;;;;4973788;28;20401;-61
2023/05/05 04:48:48;;;;;;;3.70;2.10;;;;;;;;;;4975881;28;20129;-48
2023/05/05 04:51:16;;;;;;;4.75;1.92;;;;;;;;;;4940508;28;20055;-47
2023/05/05 04:53:50;;;;;;;2.97;1.90;;;;;;;;;;4944439;28;20074;-50
2023/05/05 04:56:19;;;;;;;4.03;2.40;;;;;;;;;;4973826;28;20073;-47
2023/05/05 04:58:54;;;;;;;3.45;1.67;;;;;;;;;;4962151;28;20109;-68
2023/05/05 05:01:21;;;;;;;5.47;2.00;;;;;;;;;;4976789;28;20074;-60
2023/05/05 05:03:48;;;;;;;6.53;2.33;;;;;;;;;;4980494;28;20077;-68
2023/05/05 05:06:22;;;;;;;3.40;1.88;;;;;;;;;;4978662;28;20055;-71
2023/05/05 05:08:50;;;;;;;3.78;2.28;;;;;;;;;;4981061;28;20066;-67
2023/05/05 05:11:18;;;;;;;3.42;1.92;;;;;;;;;;4979717;28;20187;-70
2023/05/05 05:13:52;;;;;;;3.80;1.85;;;;;;;;;;4982432;28;20058;-70
2023/05/05 05:16:20;;;;;;;;;;;;;;;;;;4979135;28;20058;-70
2023/05/05 05:18:54;;;;;;;12.98;2.20;;;;;;;;;;4980105;28;19929;-58
2023/05/05 05:21:28;;;;;;;4.47;2.05;;;;;;;;;;4977276;28;20137;-58
2023/05/05 05:23:55;;;;;;;3.45;1.90;;;;;;;;;;4980597;28;20061;-58
2023/05/05 05:26:22;;;;;;;3.60;1.60;;;;;;;;;;4981958;28;20058;-58
2023/05/05 05:28:56;;;;;;;2.67;1.85;;;;;;;;;;4979134;28;20173;-61
2023/05/05 05:31:23;;;;;;;2.70;1.95;;;;;;;;;;4978226;28;20535;-70
2023/05/05 05:33:57;;;;;;;1.85;1.63;;;;;;;;;;4983118;28;20051;-70
2023/05/05 05:36:25;;;;;;;2.13;1.65;;;;;;;;;;4975534;28;20058;-70
2023/05/05 05:38:52;;;;;;;2.03;1.50;;;;;;;;;;4980297;28;20050;-70
2023/05/05 05:41:26;;;;;;;4.40;2.00;;;;;;;;;;4971234;28;20055;-70
2023/05/05 05:43:53;;;;;;;3.17;2.38;;;;;;;;;;4983653;28;20050;-69
2023/05/05 05:46:27;;;;;;;3.63;1.73;;;;;;;;;;4980609;28;20781;-66
2023/05/05 05:48:55;;;;;;;2.88;2.30;;;;;;;;;;4981072;28;20248;-66
2023/05/05 05:51:22;;;;;;;6.30;2.13;;;;;;;;;;4980042;28;20176;-65
2023/05/05 05:53:56;;;;;;;2.50;1.70;;;;;;;;;;4974780;28;20065;-65
2023/05/05 05:56:25;;;;;;;2.97;1.80;;;;;;;;;;4972979;28;20177;-62
2023/05/05 05:58:58;;;;;;;2.95;2.30;;;;;;;;;;4983033;28;20058;-56
2023/05/05 06:01:26;;;;;;;6.95;2.28;;;;;;;;;;4979724;28;20113;-52
2023/05/05 06:03:53;;;;;;;;;;;;;;;;;;4979715;28;20106;-51
2023/05/05 06:06:27;;;;;;;4.95;2.08;;;;;;;;;;4983006;28;20020;-51
2023/05/05 06:08:54;;;;;;;2.50;1.90;;;;;;;;;;4981083;28;20050;-55
2023/05/05 06:11:28;;;;;;;5.47;2.10;;;;;;;;;;4980524;28;20046;-50
2023/05/05 06:13:58;;;;;;;8.43;1.50;;;;;;;;;;4969917;28;20049;-59
2023/05/05 06:16:39;;;;;;;2.42;1.58;;;;;;;;;;4967216;28;20422;-54
2023/05/05 06:19:08;;;;;;;2.90;1.83;;;;;;;;;;4964878;28;20051;-55
2023/05/05 06:21:42;;;;;;;3.47;1.88;;;;;;;;;;4959275;28;20499;-56
2023/05/05 06:24:09;;;;;;;2.85;1.70;;;;;;;;;;4962591;28;20050;-62
2023/05/05 06:26:37;;;;;;;3.53;1.70;;;;;;;;;;4963160;28;20149;-46
2023/05/05 06:29:10;;;;;;;2.22;1.60;;;;;;;;;;4960457;28;20057;-68
2023/05/05 06:31:44;;;;;;;1.25;1.13;;;;;;;;;;4963331;28;20047;-67
2023/05/05 06:34:11;;;;;;;2.97;1.75;;;;;;;;;;4957370;28;20059;-66
2023/05/05 06:36:39;;;;;;;2.13;1.17;;;;;;;;;;4964579;28;20117;-65
2023/05/05 06:39:12;;;;;;;1.60;1.48;;;;;;;;;;4963911;28;20050;-65
2023/05/05 06:41:42;;;;;;;3.08;1.20;;;;;;;;;;4963869;28;20065;-65
2023/05/05 06:44:15;;;;;;;4.80;1.42;;;;;;;;;;4966794;28;20051;-48
2023/05/05 06:46:53;;;;;;;2.80;1.60;;;;;;;;;;4952298;28;20057;-46
2023/05/05 06:49:26;;;;;;;5.18;1.23;;;;;;;;;;4950378;28;20058;-49
2023/05/05 06:51:54;;;;;;;3.53;1.40;;;;;;;;;;4950849;28;20079;-47
2023/05/05 06:54:23;;;;;;;4.20;1.10;;;;;;;;;;4961724;28;20063;-62
2023/05/05 06:56:57;;;;;;;2.45;1.25;;;;;;;;;;4962881;28;20193;-62
2023/05/05 06:59:25;;;;;;;3.95;1.60;;;;;;;;;;4963854;28;20618;-61
2023/05/05 07:01:59;;;;;;;1.70;1.10;;;;;;;;;;4961312;28;20153;-62
2023/05/05 07:04:26;;;;;;;4.88;1.52;;;;;;;;;;4961635;28;20058;-61
2023/05/05 07:06:54;;;;;;;3.30;1.85;;;;;;;;;;4961545;28;20514;-61
2023/05/05 07:09:27;;;;;;;3.00;1.20;;;;;;;;;;4962487;28;20255;-62
2023/05/05 07:11:54;;;;;;;4.32;1.35;;;;;;;;;;4961280;28;20181;-62
2023/05/05 07:14:21;;;;;;;3.00;2.05;;;;;;;;;;4965035;28;20137;-62
2023/05/05 07:17:08;;;;;;;2.60;1.35;;;;;;;;;;4975456;28;20233;-62
2023/05/05 07:19:43;;;;;;;4.10;1.40;;;;;;;;;;4978082;28;20054;-61
2023/05/05 07:22:16;;;;;;;3.10;1.60;;;;;;;;;;4978502;28;20073;-65
2023/05/05 07:24:43;;;;;;;4.95;1.67;;;;;;;;;;4974601;28;20054;-47
2023/05/05 07:27:17;;;;;;;1.95;1.27;;;;;;;;;;4979983;28;20073;-51
2023/05/05 07:29:45;;;;;;;2.10;1.60;;;;;;;;;;4979669;28;20055;-55
2023/05/05 07:32:12;;;;;;;1.30;1.10;;;;;;;;;;4978052;28;20093;-47
2023/05/05 07:34:46;;;;;;;2.53;1.58;;;;;;;;;;4979344;28;20086;-48
2023/05/05 07:37:13;;;;;;;1.75;1.25;;;;;;;;;;4975675;28;20080;-49
2023/05/05 07:39:47;;;;;;;3.30;1.10;;;;;;;;;;4977821;28;20050;-66
2023/05/05 07:42:15;;;;;;;;;;;;;;;;;;4975330;28;20086;-66
2023/05/05 07:44:42;;;;;;;0.88;0.80;;;;;;;;;;4976328;28;19922;-66
2023/05/05 07:47:15;;;;;;;1.80;1.30;;;;;;;;;;4976866;28;20425;-65
2023/05/05 07:49:42;;;;;;;4.60;1.65;;;;;;;;;;4975773;28;20133;-66
2023/05/05 07:52:16;;;;;;;3.95;1.23;;;;;;;;;;4977136;28;20827;-64
2023/05/05 07:54:44;;;;;;;1.88;1.20;;;;;;;;;;4962750;28;20132;-66
2023/05/05 07:57:11;;;;;;;;;;;;;;;;;;4979840;28;20627;-65
2023/05/05 07:59:45;;;;;;;1.30;1.15;;;;;;;;;;4978048;28;19921;-67
2023/05/05 08:02:13;;;;;;;1.92;1.40;;;;;;;;;;4974369;28;20856;-67
2023/05/05 08:04:40;;;;;;;;;;;;;;;;;;4976045;28;20105;-68
2023/05/05 08:07:14;;;;;;;1.70;0.90;;;;;;;;;;4964595;28;19929;-69
2023/05/05 08:09:41;;;;;;;3.25;1.42;;;;;;;;;;4977247;28;20057;-62
2023/05/05 08:12:17;;;;;;;4.30;1.73;;;;;;;;;;4975024;28;20452;-61
2023/05/05 08:14:45;;;;;;;3.95;1.30;;;;;;;;;;4976617;28;20095;-64
2023/05/05 08:17:12;;;;;;;1.92;1.42;;;;;;;;;;4958021;28;20989;-62
2023/05/05 08:19:45;;;;;;;1.70;1.10;;;;;;;;;;4956913;28;20054;-61
2023/05/05 08:22:13;;;;;;;2.58;1.50;;;;;;;;;;4957016;28;20066;-62
2023/05/05 08:24:46;;;;;;;2.03;1.40;;;;;;;;;;4955624;28;20054;-64
2023/05/05 08:27:13;;;;;;;4.00;1.40;;;;;;;;;;4954733;28;20053;-63
2023/05/05 08:29:47;;;;;;;3.05;1.40;;;;;;;;;;4959102;28;20077;-63
2023/05/05 08:32:15;;;;;;;1.77;1.00;;;;;;;;;;4956601;28;20061;-63
2023/05/05 08:34:42;;;;;;;2.65;1.50;;;;;;;;;;4945424;28;20136;-64
2023/05/05 08:37:17;;;;;;;2.03;1.20;;;;;;;;;;4943841;28;20054;-63
2023/05/05 08:39:44;;;;;;;1.90;0.80;;;;;;;;;;4953450;28;20143;-63
2023/05/05 08:42:18;;;;;;;4.82;1.23;;;;;;;;;;4955665;28;20069;-62
2023/05/05 08:45:01;;;;;;;1.73;1.48;;;;;;;;;;4954648;28;20146;-61
2023/05/05 08:47:37;;;;;;;3.45;1.38;;;;;;;;;;4959222;28;20058;-59
2023/05/05 08:50:07;;;;;;;;;;;;;;;;;;4958638;28;20058;-62
2023/05/05 08:52:39;;;;;;;2.88;1.55;;;;;;;;;;4957386;28;20021;-62
2023/05/05 08:55:25;;;;;;;3.17;1.52;;;;;;;;;;4955746;28;20054;-63
2023/05/05 08:57:55;;;;;;;0.93;0.68;;;;;;;;;;4956050;28;20827;-62
2023/05/05 09:00:30;;;;;;;4.93;1.60;;;;;;;;;;4956912;28;20051;-62
2023/05/05 09:02:57;;;;;;;;;;;;;;;;;;4956216;28;20149;-62
2023/05/05 09:05:30;;;;;;;4.40;1.27;;;;;;;;;;4959360;28;19981;-52
2023/05/05 09:07:58;;;;;;;1.85;1.02;;;;;;;;;;4942869;28;20051;-49
2023/05/05 09:10:32;;;;;;;5.97;1.50;;;;;;;;;;4957409;28;20138;-50
2023/05/05 09:12:59;;;;;;;1.70;1.10;;;;;;;;;;4959462;28;20485;-49
2023/05/05 09:15:47;;;;;;;1.10;0.98;;;;;;;;;;4957696;28;20062;-54
2023/05/05 09:18:21;;;;;;;3.55;1.52;;;;;;;;;;4964589;28;20520;-62
2023/05/05 09:20:55;;;;;;;2.72;1.40;;;;;;;;;;4961041;28;20448;-49
2023/05/05 09:23:30;;;;;;;4.38;1.60;;;;;;;;;;4961114;28;20078;-51
2023/05/05 09:26:04;;;;;;;1.83;1.35;;;;;;;;;;4963484;28;20052;-51
2023/05/05 09:28:38;;;;;;;1.35;1.17;;;;;;;;;;4958182;28;20050;-49
2023/05/05 09:31:12;;;;;;;2.55;1.50;;;;;;;;;;4957548;28;20039;-50
2023/05/05 09:33:46;;;;;;;3.05;1.63;;;;;;;;;;4959498;28;20051;-67
2023/05/05 09:36:40;;;;;;;2.30;1.35;;;;;;;;;;4955936;28;20043;-70
2023/05/05 09:39:08;;;;;;;4.13;1.33;;;;;;;;;;4958040;28;20061;-68
2023/05/05 09:41:43;;;;;;;2.42;1.58;;;;;;;;;;4958941;28;20086;-68
2023/05/05 09:44:11;;;;;;;3.85;1.35;;;;;;;;;;4961097;28;20054;-65
2023/05/05 09:46:48;;;;;;;2.10;1.70;;;;;;;;;;4966456;28;20542;-52
2023/05/05 09:49:24;;;;;;;3.85;1.42;;;;;;;;;;4961738;28;20058;-70
2023/05/05 09:51:51;;;;;;;2.38;1.50;;;;;;;;;;4964761;28;20063;-66
2023/05/05 09:54:26;;;;;;;3.58;1.45;;;;;;;;;;4962989;28;20047;-70
2023/05/05 09:56:54;;;;;;;3.13;1.52;;;;;;;;;;4961994;28;20055;-67
2023/05/05 09:59:22;;;;;;;2.20;1.30;;;;;;;;;;4959233;28;20046;-68
2023/05/05 10:02:09;;;;;;;4.03;1.60;;;;;;;;;;4963331;28;20101;-52
2023/05/05 10:04:36;;;;;;;2.38;0.95;;;;;;;;;;4964935;28;20126;-53
2023/05/05 10:07:21;;;;;;;4.18;1.50;;;;;;;;;;4962333;28;20061;-56
2023/05/05 10:09:48;;;;;;;;;;;;;;;;;;4963411;28;20085;-53
2023/05/05 10:12:23;;;;;;;1.77;1.40;;;;;;;;;;4964047;28;19929;-63
2023/05/05 10:14:52;;;;;;;2.10;1.50;;;;;;;;;;4960948;28;20055;-62
2023/05/05 10:17:32;;;;;;;3.25;1.40;;;;;;;;;;4975782;28;20310;-63
2023/05/05 10:20:00;;;;;;;2.50;1.33;;;;;;;;;;4978848;28;20066;-63
2023/05/05 10:22:35;;;;;;;1.80;1.20;;;;;;;;;;4977664;28;20058;-63
2023/05/05 10:25:10;;;;;;;2.80;1.60;;;;;;;;;;4979674;28;20189;-63
2023/05/05 10:27:45;;;;;;;5.97;1.50;;;;;;;;;;4978825;28;20064;-63
2023/05/05 10:30:25;;;;;;;1.88;1.27;;;;;;;;;;4977610;28;20054;-63
2023/05/05 10:33:14;;;;;;;1.20;1.10;;;;;;;;;;4978616;28;20054;-47
2023/05/05 10:35:54;;;;;;;3.97;1.50;;;;;;;;;;4979607;28;20069;-51
2023/05/05 10:38:33;;;;;;;2.55;1.40;;;;;;;;;;4978564;28;20057;-50
2023/05/05 10:41:13;;;;;;;2.70;1.23;;;;;;;;;;4962154;28;20074;-55
2023/05/05 10:43:41;;;;;;;2.08;1.40;;;;;;;;;;4979884;28;21070;-51
2023/05/05 10:46:15;;;;;;;1.45;1.25;;;;;;;;;;4980857;28;20579;-61
2023/05/05 10:49:08;;;;;;;3.03;1.20;;;;;;;;;;4979901;28;20527;-63
2023/05/05 10:52:00;;;;;;;0.95;0.80;;;;;;;;;;4978447;28;20559;-61
2023/05/05 10:55:00;;;;;;;1.90;1.50;;;;;;;;;;4975146;28;20042;-61
2023/05/05 10:57:36;;;;;;;6.30;1.55;;;;;;;;;;4940431;28;20056;-61
2023/05/05 11:00:03;;;;;;;1.27;1.00;;;;;;;;;;4979057;28;20076;-63
2023/05/05 11:02:40;;;;;;;1.75;1.40;;;;;;;;;;4977762;28;20055;-63
2023/05/05 11:05:08;;;;;;;3.20;1.60;;;;;;;;;;4977205;28;20047;-63
2023/05/05 11:07:43;;;;;;;3.08;1.30;;;;;;;;;;4978974;28;20132;-63
2023/05/05 11:10:11;;;;;;;1.25;1.10;;;;;;;;;;4977470;28;20138;-52
2023/05/05 11:12:54;;;;;;;1.92;1.45;;;;;;;;;;4976974;28;20055;-48
2023/05/05 11:15:30;;;;;;;;;;;;;;;;;;4976752;28;20054;-56
2023/05/05 11:18:11;;;;;;;1.42;1.00;;;;;;;;;;4982528;28;20312;-47
2023/05/05 11:20:48;;;;;;;1.55;1.13;;;;;;;;;;4977430;28;20058;-51
2023/05/05 11:23:21;;;;;;;4.18;1.10;;;;;;;;;;4976369;28;20177;-55
2023/05/05 11:25:50;;;;;;;2.28;1.00;;;;;;;;;;4978167;28;20073;-51
2023/05/05 11:28:28;;;;;;;1.38;0.77;;;;;;;;;;4974955;28;20740;-63
2023/05/05 11:30:55;;;;;;;2.05;1.10;;;;;;;;;;4975858;28;20070;-63
2023/05/05 11:33:36;;;;;;;4.30;1.40;;;;;;;;;;4976952;28;20050;-63
2023/05/05 11:36:07;;;;;;;8.30;1.63;;;;;;;;;;4978434;28;20050;-63
2023/05/05 11:39:00;;;;;;;1.52;1.30;;;;;;;;;;4978174;28;20137;-61
2023/05/05 11:41:30;;;;;;;2.05;1.25;;;;;;;;;;4978264;28;20578;-63
2023/05/05 11:44:08;;;;;;;2.13;1.33;;;;;;;;;;4976039;28;20535;-62
2023/05/05 11:46:51;;;;;;;2.40;1.15;;;;;;;;;;4976683;28;20429;-64
2023/05/05 11:49:32;;;;;;;2.40;1.40;;;;;;;;;;4960067;28;20713;-63
2023/05/05 11:52:06;;;;;;;2.63;1.20;;;;;;;;;;4973624;28;20472;-64
2023/05/05 11:54:47;;;;;;;2.33;1.10;;;;;;;;;;4976826;28;20051;-63
2023/05/05 11:57:25;;;;;;;1.80;1.33;;;;;;;;;;4978014;28;20440;-54
2023/05/05 12:00:02;;;;;;;1.60;1.10;;;;;;;;;;4978103;28;20104;-51
2023/05/05 12:02:36;;;;;;;6.47;1.40;;;;;;;;;;4964897;28;20054;-52
2023/05/05 12:05:10;;;;;;;3.33;1.08;;;;;;;;;;4959761;28;20062;-55
2023/05/05 12:07:37;;;;;;;3.30;1.20;;;;;;;;;;4961736;28;20056;-52
2023/05/05 12:10:11;;;;;;;2.17;1.38;;;;;;;;;;4976317;28;20492;-48
2023/05/05 12:12:40;;;;;;;3.33;1.52;;;;;;;;;;4978153;28;20289;-49
2023/05/05 12:15:08;;;;;;;4.47;1.23;;;;;;;;;;4978613;28;20050;-48
2023/05/05 12:17:49;;;;;;;4.90;1.27;;;;;;;;;;4962722;28;20056;-47
2023/05/05 12:20:35;;;;;;;2.65;1.33;;;;;;;;;;4964095;28;20520;-50
2023/05/05 12:23:11;;;;;;;3.67;1.50;;;;;;;;;;4974769;28;20535;-51
2023/05/05 12:25:39;;;;;;;2.72;1.35;;;;;;;;;;4945450;28;20066;-68
2023/05/05 12:28:12;;;;;;;1.70;1.20;;;;;;;;;;4975059;28;20094;-67
2023/05/05 12:30:39;;;;;;;3.42;1.35;;;;;;;;;;4978321;28;20431;-68
2023/05/05 12:33:13;;;;;;;2.58;1.50;;;;;;;;;;4978982;28;20074;-68
2023/05/05 12:35:41;;;;;;;2.45;1.48;;;;;;;;;;4979041;28;20060;-64
2023/05/05 12:38:08;;;;;;;;;;;;;;;;;;4977406;28;20547;-57
2023/05/05 12:40:51;;;;;;;1.33;1.23;;;;;;;;;;4976922;28;19922;-58
2023/05/05 12:43:25;;;;;;;2.92;1.20;;;;;;;;;;4974817;28;20720;-54
2023/05/05 12:46:06;;;;;;;4.53;1.60;;;;;;;;;;4976160;28;20058;-56
2023/05/05 12:48:36;;;;;;;28.52;16.02;;;;;;;;;;4977923;28;20055;-57
2023/05/05 12:51:15;;;;;;;2.97;1.75;;;;;;;;;;4978373;28;20057;-57
2023/05/05 12:53:43;;;;;;;2.58;1.40;;;;;;;;;;4977219;28;20055;-64
2023/05/05 12:56:34;;;;;;;1.55;1.10;;;;;;;;;;4969908;28;20151;-64
2023/05/05 12:59:08;;;;;;;7.70;2.53;;;;;;;;;;4973759;28;20060;-64
2023/05/05 13:01:36;;;;;;;3.67;1.52;;;;;;;;;;4976694;28;20141;-64
2023/05/05 13:04:10;;;;;;;2.47;1.05;;;;;;;;;;4977250;28;20483;-61
2023/05/05 13:06:41;;;;;;;2.13;1.20;;;;;;;;;;4977124;28;20113;-67
2023/05/05 13:09:22;;;;;;;4.07;1.10;;;;;;;;;;4977475;28;20053;-68
2023/05/05 13:11:49;;;;;;;1.60;0.90;;;;;;;;;;4961640;28;20061;-68
2023/05/05 13:14:23;;;;;;;2.40;1.10;;;;;;;;;;4973709;28;20372;-68
2023/05/05 13:16:57;;;;;;;3.88;1.20;;;;;;;;;;4977230;28;20063;-67
2023/05/05 13:19:44;;;;;;;3.03;1.20;;;;;;;;;;4978998;28;20074;-68
2023/05/05 13:22:12;;;;;;;4.13;1.50;;;;;;;;;;4979825;28;20469;-61
2023/05/05 13:24:46;;;;;;;3.10;1.30;;;;;;;;;;4975029;28;20432;-61
2023/05/05 13:27:20;;;;;;;2.17;1.08;;;;;;;;;;4975003;28;20086;-60
2023/05/05 13:29:54;;;;;;;2.13;1.42;;;;;;;;;;4978698;28;20092;-60
2023/05/05 13:32:22;;;;;;;7.45;1.30;;;;;;;;;;4980515;28;20440;-63
2023/05/05 13:34:49;;;;;;;3.75;1.40;;;;;;;;;;4979291;28;20058;-66
2023/05/05 13:37:23;;;;;;;3.03;0.98;;;;;;;;;;4982696;28;20058;-66
2023/05/05 13:39:50;;;;;;;2.63;1.45;;;;;;;;;;4974568;28;20180;-66
2023/05/05 13:42:17;;;;;;;2.13;1.00;;;;;;;;;;4977272;28;20058;-64
2023/05/05 13:44:51;;;;;;;1.02;0.75;;;;;;;;;;4977189;28;20069;-66
2023/05/05 13:47:18;;;;;;;2.53;1.02;;;;;;;;;;4977615;28;20047;-66
2023/05/05 13:49:52;;;;;;;2.15;1.13;;;;;;;;;;4981428;28;20153;-57
2023/05/05 13:52:19;;;;;;;4.38;1.38;;;;;;;;;;4977469;28;20056;-60
2023/05/05 13:54:47;;;;;;;2.13;1.40;;;;;;;;;;4978720;28;20058;-57
2023/05/05 13:57:20;;;;;;;1.20;1.10;;;;;;;;;;4975040;28;20120;-58
2023/05/05 13:59:47;;;;;;;3.85;1.27;;;;;;;;;;4979426;28;20046;-69
2023/05/05 14:02:15;;;;;;;3.25;1.13;;;;;;;;;;4976374;28;20046;-53
2023/05/05 14:04:48;;;;;;;1.70;1.10;;;;;;;;;;4974711;28;20053;-67
2023/05/05 14:07:15;;;;;;;1.80;1.20;;;;;;;;;;4976876;28;21045;-67
2023/05/05 14:09:49;;;;;;;1.73;1.17;;;;;;;;;;4979172;28;20072;-67
2023/05/05 14:12:16;;;;;;;2.65;1.27;;;;;;;;;;4979925;28;20304;-67
2023/05/05 14:14:44;;;;;;;2.35;1.42;;;;;;;;;;4980232;28;20103;-67
2023/05/05 14:17:24;;;;;;;3.22;1.10;;;;;;;;;;4978658;28;20602;-67
2023/05/05 14:19:58;;;;;;;3.15;1.10;;;;;;;;;;4975247;28;20078;-66
2023/05/05 14:22:31;;;;;;;4.30;1.30;;;;;;;;;;4979439;28;20112;-52
2023/05/05 14:24:59;;;;;;;1.83;1.17;;;;;;;;;;4982115;28;20051;-52
2023/05/05 14:27:26;;;;;;;1.85;1.38;;;;;;;;;;4980189;28;20165;-53
2023/05/05 14:30:00;;;;;;;3.25;1.40;;;;;;;;;;4977704;28;20110;-52
2023/05/05 14:32:27;;;;;;;3.65;1.25;;;;;;;;;;4979481;28;20058;-55
2023/05/05 14:35:01;;;;;;;2.30;1.40;;;;;;;;;;4979266;28;20109;-55
2023/05/05 14:37:28;;;;;;;1.25;0.98;;;;;;;;;;4978558;28;20051;-56
2023/05/05 14:39:57;;;;;;;5.60;1.02;;;;;;;;;;4981176;28;20046;-55
2023/05/05 14:42:32;;;;;;;2.40;1.45;;;;;;;;;;4975828;28;20054;-58
2023/05/05 14:44:59;;;;;;;1.33;1.00;;;;;;;;;;4977901;28;20062;-57
2023/05/05 14:47:26;;;;;;;3.17;0.95;;;;;;;;;;4977255;28;20062;-63
2023/05/05 14:50:00;;;;;;;1.83;0.93;;;;;;;;;;4975632;28;20440;-67
2023/05/05 14:52:27;;;;;;;2.13;1.38;;;;;;;;;;4970635;28;20137;-69
2023/05/05 14:55:01;;;;;;;2.22;1.40;;;;;;;;;;4981156;28;20538;-68
2023/05/05 14:57:28;;;;;;;4.60;1.25;;;;;;;;;;4975092;28;20082;-68
2023/05/05 14:59:55;;;;;;;2.05;1.10;;;;;;;;;;4980673;28;20142;-68
2023/05/05 15:02:29;;;;;;;5.07;1.40;;;;;;;;;;4979759;28;20064;-68
2023/05/05 15:04:57;;;;;;;4.55;1.35;;;;;;;;;;4979361;28;20056;-54
2023/05/05 15:07:30;;;;;;;4.65;1.20;;;;;;;;;;4980059;28;20137;-66
2023/05/05 15:09:57;;;;;;;4.32;1.23;;;;;;;;;;4980972;28;20050;-62
2023/05/05 15:12:25;;;;;;;2.25;1.48;;;;;;;;;;4979791;28;20061;-62
2023/05/05 15:14:58;;;;;;;1.27;1.00;;;;;;;;;;4978812;28;20062;-63
2023/05/05 15:17:32;;;;;;;2.53;1.38;;;;;;;;;;4972197;28;20050;-62